Time;durP1;ratioP1;P1;durP2;ratioP2;P2;SDS_P1;SDS_P2;PMS_P1;PMS_P2;Temp;Humidity;BMP_temperature;BMP_pressure;BME280_temperature;BME280_humidity;BME280_pressure;Samples;Min_cycle;Max_cycle;Signal;HPM_P1;HPM_P2
2023/03/23 00:02:26;;;;;;;22.70;10.52;;;9.90;99.90;;;;;;5120064;27;20583;-76
2023/03/23 00:04:53;;;;;;;25.55;9.95;;;9.90;99.90;;;;;;5121203;27;20035;-76
2023/03/23 00:07:21;;;;;;;21.25;11.30;;;10.00;99.90;;;;;;5120052;27;20039;-76
2023/03/23 00:09:47;;;;;;;;;;;9.90;99.90;;;;;;5126146;27;20038;-76
2023/03/23 00:12:15;;;;;;;28.23;14.30;;;9.90;99.90;;;;;;5126921;28;19959;-75
2023/03/23 00:14:41;;;;;;;30.65;16.98;;;9.90;99.90;;;;;;5132392;27;20071;-75
2023/03/23 00:17:10;;;;;;;26.52;15.90;;;10.00;99.90;;;;;;5127571;27;20062;-75
2023/03/23 00:19:45;;;;;;;39.22;20.33;;;10.00;99.90;;;;;;5137240;27;20066;-75
2023/03/23 00:22:12;;;;;;;35.35;19.60;;;10.10;99.90;;;;;;5150344;27;20046;-74
2023/03/23 00:24:38;;;;;;;39.80;19.92;;;10.20;99.90;;;;;;5145503;27;20039;-74
2023/03/23 00:27:04;;;;;;;40.20;18.23;;;10.10;99.90;;;;;;5130701;27;20043;-74
2023/03/23 00:29:29;;;;;;;23.33;12.40;;;10.20;99.90;;;;;;5135814;27;20098;-75
2023/03/23 00:31:56;;;;;;;33.78;14.35;;;10.10;99.90;;;;;;5124532;28;20082;-74
2023/03/23 00:34:24;;;;;;;36.05;14.82;;;10.10;99.90;;;;;;5136343;27;20069;-74
2023/03/23 00:36:57;;;;;;;25.77;13.50;;;10.10;99.90;;;;;;5149486;27;20100;-75
2023/03/23 00:39:25;;;;;;;31.85;15.18;;;10.10;99.90;;;;;;5147095;27;20082;-74
2023/03/23 00:41:51;;;;;;;29.08;18.73;;;10.10;99.90;;;;;;5122248;27;20074;-75
2023/03/23 00:44:17;;;;;;;36.10;21.35;;;10.00;99.90;;;;;;5115520;28;20064;-74
2023/03/23 00:46:44;;;;;;;41.78;23.60;;;10.10;99.90;;;;;;5097392;28;20062;-75
2023/03/23 00:49:15;;;;;;;38.88;21.42;;;10.10;99.90;;;;;;5125726;27;20519;-74
2023/03/23 00:51:42;;;;;;;35.15;22.42;;;10.10;99.90;;;;;;5123488;27;20051;-75
2023/03/23 00:54:08;;;;;;;45.80;24.55;;;10.10;99.90;;;;;;5134138;27;20184;-75
2023/03/23 00:56:35;;;;;;;41.78;24.08;;;10.20;99.90;;;;;;5117736;27;20498;-74
2023/03/23 00:59:01;;;;;;;41.35;25.08;;;10.20;99.90;;;;;;5114621;28;20091;-76
2023/03/23 01:01:26;;;;;;;41.30;24.80;;;10.30;99.90;;;;;;5123354;27;20062;-74
2023/03/23 01:04:00;;;;;;;36.30;21.52;;;10.20;99.90;;;;;;5126846;27;20105;-75
2023/03/23 01:06:27;;;;;;;53.28;23.83;;;10.30;99.90;;;;;;5118973;27;20414;-75
2023/03/23 01:08:53;;;;;;;35.75;18.83;;;10.30;99.90;;;;;;5120102;27;20039;-76
2023/03/23 01:11:20;;;;;;;18.15;12.02;;;10.20;99.90;;;;;;5122533;27;20125;-75
2023/03/23 01:13:45;;;;;;;12.85;8.45;;;10.20;99.90;;;;;;5135566;27;20100;-75
2023/03/23 01:16:11;;;;;;;8.45;5.97;;;10.20;99.90;;;;;;5138297;27;20067;-74
2023/03/23 01:18:38;;;;;;;8.80;5.88;;;10.10;99.90;;;;;;5137975;27;20437;-74
2023/03/23 01:21:10;;;;;;;8.50;4.88;;;10.10;99.90;;;;;;5123440;28;20401;-75
2023/03/23 01:23:37;;;;;;;12.15;5.05;;;10.00;99.90;;;;;;5122506;27;20046;-75
2023/03/23 01:26:09;;;;;;;8.32;4.43;;;9.90;99.90;;;;;;5125862;27;20044;-75
2023/03/23 01:28:35;;;;;;;7.10;4.30;;;9.90;99.90;;;;;;5120462;27;20050;-74
2023/03/23 01:31:06;;;;;;;9.70;4.63;;;9.80;99.90;;;;;;5120068;27;20062;-75
2023/03/23 01:33:32;;;;;;;11.20;5.47;;;9.70;99.90;;;;;;5096811;27;20078;-75
2023/03/23 01:36:03;;;;;;;11.43;6.97;;;9.70;99.90;;;;;;5137123;27;20031;-76
2023/03/23 01:38:29;;;;;;;11.90;7.82;;;9.70;99.90;;;;;;5119935;28;20048;-75
2023/03/23 01:40:55;;;;;;;15.43;8.43;;;9.80;99.90;;;;;;5113015;28;20503;-75
2023/03/23 01:43:20;;;;;;;22.80;11.93;;;9.60;99.90;;;;;;5083127;28;20443;-75
2023/03/23 01:45:46;;;;;;;18.60;11.00;;;9.70;99.90;;;;;;5116677;28;20036;-75
2023/03/23 01:48:12;;;;;;;21.48;11.15;;;9.70;99.90;;;;;;5119688;27;20430;-74
2023/03/23 01:51:03;;;;;;;15.45;10.18;;;9.70;99.90;;;;;;5131466;27;20032;-74
2023/03/23 01:53:34;;;;;;;21.23;11.95;;;9.70;99.90;;;;;;5113140;28;20052;-75
2023/03/23 01:56:01;;;;;;;30.80;15.07;;;9.70;99.90;;;;;;5114961;27;20383;-75
2023/03/23 01:58:31;;;;;;;23.55;13.52;;;9.70;99.90;;;;;;5126858;27;20039;-75
2023/03/23 02:01:01;;;;;;;26.63;15.65;;;9.70;99.90;;;;;;5113599;27;20404;-74
2023/03/23 02:03:28;;;;;;;31.88;14.65;;;9.80;99.90;;;;;;5113201;28;20047;-74
2023/03/23 02:05:58;;;;;;;29.20;13.95;;;9.80;99.90;;;;;;5115177;27;20063;-75
2023/03/23 02:08:26;;;;;;;23.02;13.93;;;9.80;99.90;;;;;;5124727;27;20043;-75
2023/03/23 02:10:52;;;;;;;23.05;12.88;;;9.90;99.90;;;;;;5110213;27;20095;-74
2023/03/23 02:13:18;;;;;;;26.50;13.30;;;10.00;99.90;;;;;;5132593;28;20042;-74
2023/03/23 02:16:04;;;;;;;26.25;13.63;;;9.90;99.90;;;;;;5126897;28;20489;-75
2023/03/23 02:19:13;;;;;;;31.85;14.05;;;9.90;99.90;;;;;;5117200;28;20491;-73
2023/03/23 02:22:02;;;;;;;20.77;11.43;;;10.00;99.90;;;;;;5125800;28;20084;-74
2023/03/23 02:24:43;;;;;;;19.43;11.03;;;10.00;99.90;;;;;;5125962;28;20040;-74
2023/03/23 02:27:18;;;;;;;20.25;11.45;;;10.30;99.90;;;;;;5112873;28;20072;-74
2023/03/23 02:30:07;;;;;;;26.00;11.20;;;10.10;99.90;;;;;;5120792;28;20449;-75
2023/03/23 02:32:36;;;;;;;;;;;10.10;99.90;;;;;;5120802;28;20376;-74
2023/03/23 02:35:27;;;;;;;18.35;10.02;;;10.10;99.90;;;;;;5125087;28;19919;-74
2023/03/23 02:37:59;;;;;;;27.38;11.98;;;10.20;99.90;;;;;;5123386;28;20043;-74
2023/03/23 02:40:31;;;;;;;20.23;9.30;;;10.20;99.90;;;;;;5112727;28;20048;-75
2023/03/23 02:42:58;;;;;;;24.48;9.75;;;10.10;99.90;;;;;;5114355;28;20107;-74
2023/03/23 02:45:28;;;;;;;18.25;9.13;;;10.20;99.90;;;;;;5080107;28;20051;-74
2023/03/23 02:47:54;;;;;;;17.63;8.82;;;10.20;99.90;;;;;;5129491;28;20043;-74
2023/03/23 02:50:23;;;;;;;14.40;8.07;;;10.20;99.90;;;;;;5119828;28;20134;-74
2023/03/23 02:52:50;;;;;;;19.98;9.25;;;10.20;99.90;;;;;;5118994;28;20520;-74
2023/03/23 02:55:18;;;;;;;13.57;7.55;;;10.30;99.90;;;;;;5129814;28;20472;-74
2023/03/23 02:57:45;;;;;;;18.75;9.48;;;10.30;99.90;;;;;;5118411;28;20058;-73
2023/03/23 03:00:14;;;;;;;17.98;8.00;;;10.20;99.90;;;;;;5116444;28;20039;-74
2023/03/23 03:02:44;;;;;;;20.00;8.23;;;10.20;99.90;;;;;;5119098;28;20043;-73
2023/03/23 03:05:25;;;;;;;16.15;8.60;;;10.30;99.90;;;;;;5113000;28;20097;-74
2023/03/23 03:08:19;;;;;;;16.23;8.07;;;10.30;99.90;;;;;;5111792;28;20082;-73
2023/03/23 03:10:58;;;;;;;15.02;6.70;;;10.30;99.90;;;;;;5132229;27;20607;-73
2023/03/23 03:13:30;;;;;;;13.73;7.97;;;10.20;99.90;;;;;;5119680;28;20122;-74
2023/03/23 03:16:14;;;;;;;14.00;7.32;;;10.20;99.90;;;;;;5118298;28;20484;-74
2023/03/23 03:19:03;;;;;;;16.02;7.53;;;10.20;99.90;;;;;;5124550;27;20484;-74
2023/03/23 03:21:33;;;;;;;14.02;7.78;;;10.20;99.90;;;;;;5122365;27;20043;-74
2023/03/23 03:24:02;;;;;;;16.42;8.02;;;10.20;99.90;;;;;;5122159;27;20365;-74
2023/03/23 03:26:30;;;;;;;17.83;7.25;;;10.20;99.90;;;;;;5125624;27;20180;-74
2023/03/23 03:28:56;;;;;;;16.40;6.72;;;10.20;99.90;;;;;;5126766;27;20044;-74
2023/03/23 03:31:27;;;;;;;13.13;7.45;;;10.20;99.90;;;;;;5128270;27;20409;-73
2023/03/23 03:33:53;;;;;;;13.25;7.03;;;10.20;99.90;;;;;;5125436;27;20048;-73
2023/03/23 03:36:27;;;;;;;13.85;6.13;;;10.20;99.90;;;;;;5116722;27;20501;-73
2023/03/23 03:38:53;;;;;;;13.52;6.75;;;10.20;99.90;;;;;;5124090;27;20130;-73
2023/03/23 03:41:20;;;;;;;11.95;6.07;;;10.10;99.90;;;;;;5125179;27;20039;-74
2023/03/23 03:43:45;;;;;;;13.63;6.25;;;10.20;99.90;;;;;;5125607;27;20527;-73
2023/03/23 03:46:11;;;;;;;13.55;6.43;;;10.20;99.90;;;;;;5132712;27;20043;-73
2023/03/23 03:48:37;;;;;;;11.32;6.57;;;10.10;99.90;;;;;;5130015;27;20441;-73
2023/03/23 03:51:02;;;;;;;14.65;6.07;;;10.20;99.90;;;;;;5123555;27;20047;-73
2023/03/23 03:53:30;;;;;;;12.23;5.93;;;10.20;99.90;;;;;;5112747;28;20476;-73
2023/03/23 03:55:59;;;;;;;17.67;5.97;;;10.30;99.90;;;;;;5098014;28;20036;-73
2023/03/23 03:58:31;;;;;;;17.58;6.60;;;10.30;99.90;;;;;;5080095;28;20083;-76
2023/03/23 04:00:58;;;;;;;10.43;6.28;;;10.30;99.90;;;;;;5107117;28;20040;-75
2023/03/23 04:03:25;;;;;;;13.63;6.32;;;10.30;99.90;;;;;;5109782;28;20086;-76
2023/03/23 04:05:51;;;;;;;19.70;6.70;;;10.20;99.90;;;;;;5105123;27;20131;-75
2023/03/23 04:08:17;;;;;;;10.07;5.22;;;10.20;99.90;;;;;;5107834;27;20034;-73
2023/03/23 04:10:43;;;;;;;10.13;5.00;;;10.10;99.90;;;;;;5114750;27;20473;-75
2023/03/23 04:13:08;;;;;;;12.63;5.38;;;10.10;99.90;;;;;;5119016;27;20046;-74
2023/03/23 04:15:34;;;;;;;9.57;5.05;;;10.10;99.90;;;;;;5116919;27;20039;-75
2023/03/23 04:18:00;;;;;;;11.77;5.38;;;10.00;99.90;;;;;;5112480;28;20227;-75
2023/03/23 04:20:26;;;;;;;11.73;4.03;;;10.00;99.90;;;;;;5107998;28;20040;-75
2023/03/23 04:22:54;;;;;;;6.82;2.97;;;10.00;99.90;;;;;;5108059;28;20040;-75
2023/03/23 04:25:21;;;;;;;8.90;2.78;;;10.00;99.90;;;;;;5094561;28;20040;-75
2023/03/23 04:27:52;;;;;;;5.90;2.60;;;9.90;99.90;;;;;;5096365;28;20498;-75
2023/03/23 04:30:23;;;;;;;8.13;2.92;;;9.80;99.90;;;;;;5097186;28;20144;-75
2023/03/23 04:32:51;;;;;;;9.43;2.85;;;9.70;99.90;;;;;;5098405;28;20050;-75
2023/03/23 04:35:19;;;;;;;6.50;2.80;;;9.70;99.90;;;;;;5109738;28;20036;-75
2023/03/23 04:37:45;;;;;;;15.93;4.15;;;9.70;99.90;;;;;;5107754;28;20051;-74
2023/03/23 04:40:14;;;;;;;8.73;3.70;;;9.70;99.90;;;;;;5102765;28;20046;-73
2023/03/23 04:42:45;;;;;;;9.10;3.25;;;9.70;99.90;;;;;;5112159;28;20500;-73
2023/03/23 04:45:12;;;;;;;10.27;2.97;;;9.60;99.90;;;;;;5100615;28;20048;-73
2023/03/23 04:47:41;;;;;;;8.70;3.58;;;9.60;99.90;;;;;;5106538;28;20052;-73
2023/03/23 04:50:12;;;;;;;11.98;3.88;;;9.60;99.90;;;;;;5089120;28;20040;-73
2023/03/23 04:52:44;;;;;;;10.18;3.10;;;9.50;99.90;;;;;;5115472;27;20087;-73
2023/03/23 04:55:11;;;;;;;9.60;3.00;;;9.50;99.90;;;;;;5133998;27;20042;-73
2023/03/23 04:57:37;;;;;;;10.00;3.13;;;9.40;99.90;;;;;;5139893;27;20067;-74
2023/03/23 05:00:08;;;;;;;11.93;2.80;;;9.40;99.90;;;;;;5123160;27;20134;-74
2023/03/23 05:02:39;;;;;;;10.02;3.20;;;9.30;99.90;;;;;;5126083;27;20134;-74
2023/03/23 05:05:06;;;;;;;10.18;3.03;;;9.30;99.90;;;;;;5121304;27;20403;-74
2023/03/23 05:07:31;;;;;;;14.25;3.55;;;9.30;99.90;;;;;;5112013;27;20373;-74
2023/03/23 05:09:57;;;;;;;15.23;3.72;;;9.40;99.90;;;;;;5126283;27;20039;-73
2023/03/23 05:12:23;;;;;;;10.40;2.90;;;9.30;99.90;;;;;;5121336;27;20039;-72
2023/03/23 05:14:49;;;;;;;13.05;3.40;;;9.30;99.90;;;;;;5126448;27;20042;-73
2023/03/23 05:17:16;;;;;;;9.10;3.22;;;9.30;99.90;;;;;;5117079;27;20439;-73
2023/03/23 05:19:51;;;;;;;12.35;3.92;;;9.30;99.90;;;;;;5119907;27;20085;-73
2023/03/23 05:22:17;;;;;;;17.52;4.10;;;9.30;99.90;;;;;;5121768;27;20043;-73
2023/03/23 05:24:43;;;;;;;16.00;4.72;;;9.40;99.90;;;;;;5123187;27;20149;-73
2023/03/23 05:27:09;;;;;;;14.10;4.28;;;9.40;99.90;;;;;;5106902;27;20055;-72
2023/03/23 05:29:36;;;;;;;22.92;7.63;;;9.40;99.90;;;;;;5103794;27;20031;-72
2023/03/23 05:32:05;;;;;;;11.90;5.50;;;9.50;99.90;;;;;;5142739;27;20050;-73
2023/03/23 05:34:34;;;;;;;12.10;5.43;;;9.60;99.90;;;;;;5127515;27;20066;-73
2023/03/23 05:37:01;;;;;;;22.20;6.13;;;9.60;99.90;;;;;;5124073;27;20036;-75
2023/03/23 05:39:32;;;;;;;14.83;5.27;;;9.70;99.90;;;;;;5126498;27;20047;-74
2023/03/23 05:41:58;;;;;;;22.45;5.43;;;9.70;99.90;;;;;;5128151;27;20121;-73
2023/03/23 05:44:24;;;;;;;17.55;5.45;;;9.70;99.90;;;;;;5123241;27;20382;-73
2023/03/23 05:46:49;;;;;;;21.95;5.85;;;9.70;99.90;;;;;;5123948;27;20043;-73
2023/03/23 05:49:16;;;;;;;21.58;5.05;;;9.80;99.90;;;;;;5130141;27;20131;-72
2023/03/23 05:51:43;;;;;;;21.10;5.90;;;9.70;99.90;;;;;;5087425;27;20503;-72
2023/03/23 05:54:10;;;;;;;22.63;4.40;;;9.70;99.90;;;;;;5127289;27;20117;-72
2023/03/23 05:56:36;;;;;;;21.05;4.15;;;9.70;99.90;;;;;;5122004;27;20295;-72
2023/03/23 05:59:02;;;;;;;36.85;5.80;;;9.70;99.90;;;;;;5116761;27;20114;-72
2023/03/23 06:01:28;;;;;;;27.65;4.60;;;9.70;99.90;;;;;;5129394;27;20075;-73
2023/03/23 06:03:58;;;;;;;30.52;5.72;;;9.70;99.90;;;;;;5125905;27;20077;-72
2023/03/23 06:06:29;;;;;;;33.55;5.07;;;9.70;99.90;;;;;;5098818;27;20043;-72
2023/03/23 06:08:56;;;;;;;27.52;4.90;;;9.80;99.90;;;;;;5119778;27;20051;-72
2023/03/23 06:11:24;;;;;;;29.95;4.57;;;9.70;99.90;;;;;;5124770;27;20043;-73
2023/03/23 06:13:50;;;;;;;27.27;4.47;;;9.70;99.90;;;;;;5115656;28;20047;-73
2023/03/23 06:16:16;;;;;;;28.35;4.75;;;9.70;99.90;;;;;;5115237;28;20036;-72
2023/03/23 06:18:42;;;;;;;27.15;5.05;;;9.70;99.90;;;;;;5113690;28;20383;-72
2023/03/23 06:21:09;;;;;;;25.45;5.00;;;9.80;99.90;;;;;;5116313;28;20074;-72
2023/03/23 06:23:35;;;;;;;25.98;5.15;;;9.80;99.90;;;;;;5117368;28;20043;-72
2023/03/23 06:26:05;;;;;;;31.88;4.40;;;9.80;99.90;;;;;;5127442;28;20493;-72
2023/03/23 06:28:31;;;;;;;30.67;5.88;;;9.80;99.90;;;;;;5123565;28;20039;-72
2023/03/23 06:31:02;;;;;;;28.08;5.00;;;9.80;99.90;;;;;;5126569;27;20035;-72
2023/03/23 06:33:27;;;;;;;33.20;5.05;;;9.80;99.90;;;;;;5126890;28;20054;-72
2023/03/23 06:35:53;;;;;;;25.75;4.88;;;9.90;99.90;;;;;;5106694;28;20040;-72
2023/03/23 06:38:19;;;;;;;29.40;5.20;;;9.80;99.90;;;;;;5113848;27;20127;-72
2023/03/23 06:40:46;;;;;;;36.55;6.70;;;10.00;99.90;;;;;;5095150;28;20057;-72
2023/03/23 06:43:13;;;;;;;27.10;4.97;;;9.80;99.90;;;;;;5104858;28;20131;-72
2023/03/23 06:45:39;;;;;;;23.50;5.10;;;9.80;99.90;;;;;;5116536;28;20118;-72
2023/03/23 06:48:05;;;;;;;32.83;4.47;;;9.80;99.90;;;;;;5119459;28;20483;-72
2023/03/23 06:50:31;;;;;;;29.38;4.65;;;9.80;99.90;;;;;;5094959;28;20047;-72
2023/03/23 06:52:57;;;;;;;16.58;2.95;;;9.70;99.90;;;;;;5116592;27;20042;-72
2023/03/23 06:55:22;;;;;;;17.15;3.08;;;9.60;99.90;;;;;;5127032;27;20384;-73
2023/03/23 06:57:48;;;;;;;17.77;3.25;;;9.60;99.90;;;;;;5135010;27;20027;-72
2023/03/23 07:00:15;;;;;;;15.88;3.35;;;9.50;99.90;;;;;;5128956;27;20531;-72
2023/03/23 07:02:40;;;;;;;15.80;3.53;;;9.40;99.90;;;;;;5125889;27;20043;-72
2023/03/23 07:05:08;;;;;;;15.70;2.95;;;9.40;99.90;;;;;;5122303;27;20400;-72
2023/03/23 07:07:35;;;;;;;10.27;2.55;;;9.40;99.90;;;;;;5130027;27;20036;-72
2023/03/23 07:10:01;;;;;;;15.85;3.20;;;9.40;99.90;;;;;;5121179;27;20122;-72
2023/03/23 07:12:27;;;;;;;15.23;3.13;;;9.30;99.90;;;;;;5137674;27;20193;-72
2023/03/23 07:14:52;;;;;;;13.40;2.90;;;9.30;99.90;;;;;;5136376;27;20051;-73
2023/03/23 07:17:18;;;;;;;10.98;2.63;;;9.30;99.90;;;;;;5131912;27;20131;-73
2023/03/23 07:19:44;;;;;;;14.73;2.88;;;9.30;99.90;;;;;;5130632;27;20047;-73
2023/03/23 07:22:10;;;;;;;23.25;4.05;;;9.40;99.90;;;;;;5135638;27;20050;-73
2023/03/23 07:24:35;;;;;;;22.25;4.10;;;9.40;99.90;;;;;;5133373;27;21143;-73
2023/03/23 07:27:01;;;;;;;16.55;4.03;;;9.40;99.90;;;;;;5119798;27;20088;-73
2023/03/23 07:29:26;;;;;;;23.95;4.97;;;9.40;99.90;;;;;;5135892;27;20476;-72
2023/03/23 07:31:53;;;;;;;19.60;4.03;;;9.50;99.90;;;;;;5134300;27;20038;-73
2023/03/23 07:34:19;;;;;;;21.10;4.13;;;9.50;99.90;;;;;;5127379;27;20715;-72
2023/03/23 07:36:45;;;;;;;24.70;5.00;;;9.50;99.90;;;;;;5115278;28;20047;-72
2023/03/23 07:39:11;;;;;;;20.88;4.63;;;9.60;99.90;;;;;;5126781;27;20031;-72
2023/03/23 07:41:38;;;;;;;27.10;5.07;;;9.70;99.90;;;;;;5129167;27;20039;-72
2023/03/23 07:44:04;;;;;;;32.20;5.45;;;9.80;99.90;;;;;;5129354;27;20492;-72
2023/03/23 07:46:30;;;;;;;30.90;5.05;;;9.90;99.90;;;;;;5142404;27;20043;-73
2023/03/23 07:48:56;;;;;;;35.58;6.63;;;10.00;99.90;;;;;;5132535;27;20050;-73
2023/03/23 07:51:22;;;;;;;29.10;5.38;;;10.10;99.90;;;;;;5122734;27;20053;-73
2023/03/23 07:53:49;;;;;;;38.33;6.10;;;10.10;99.90;;;;;;5133705;27;20047;-73
2023/03/23 07:56:18;;;;;;;36.75;6.93;;;10.20;99.90;;;;;;5126244;27;20042;-73
2023/03/23 07:58:47;;;;;;;31.27;5.88;;;10.30;99.90;;;;;;5122637;27;20039;-71
2023/03/23 08:01:13;;;;;;;31.73;6.97;;;10.40;99.90;;;;;;5119907;27;20452;-70
2023/03/23 08:03:39;;;;;;;32.55;5.82;;;10.40;99.90;;;;;;5119759;27;20126;-71
2023/03/23 08:06:05;;;;;;;29.02;5.88;;;10.50;99.90;;;;;;5121574;27;20067;-72
2023/03/23 08:08:31;;;;;;;30.75;5.90;;;10.70;99.90;;;;;;5134033;27;20043;-72
2023/03/23 08:10:57;;;;;;;44.58;6.47;;;10.70;99.90;;;;;;5132260;27;20047;-71
2023/03/23 08:13:23;;;;;;;35.42;6.03;;;10.70;99.90;;;;;;5116298;27;20066;-72
2023/03/23 08:15:49;;;;;;;37.17;6.20;;;10.70;99.90;;;;;;5119979;27;20050;-72
2023/03/23 08:18:15;;;;;;;34.78;6.50;;;10.70;99.90;;;;;;5121582;27;20094;-72
2023/03/23 08:20:41;;;;;;;34.60;5.97;;;10.70;99.90;;;;;;5120121;27;20552;-72
2023/03/23 08:23:07;;;;;;;42.17;6.10;;;10.80;99.90;;;;;;5130559;27;20061;-72
2023/03/23 08:25:33;;;;;;;37.20;6.75;;;10.90;99.90;;;;;;5129990;27;20484;-71
2023/03/23 08:28:01;;;;;;;37.58;6.80;;;10.90;99.90;;;;;;5130472;27;20429;-72
2023/03/23 08:30:29;;;;;;;34.75;6.05;;;10.90;99.90;;;;;;5129798;27;20047;-71
2023/03/23 08:32:56;;;;;;;43.00;6.25;;;11.00;99.90;;;;;;5126190;27;20043;-71
2023/03/23 08:35:23;;;;;;;31.25;6.00;;;11.00;99.90;;;;;;5122297;27;20058;-73
2023/03/23 08:37:52;;;;;;;36.85;5.68;;;11.00;99.90;;;;;;5122732;27;20397;-72
2023/03/23 08:40:21;;;;;;;33.80;7.10;;;10.90;99.90;;;;;;5132773;27;20092;-73
2023/03/23 08:42:48;;;;;;;36.53;6.55;;;10.90;99.90;;;;;;5125520;27;20036;-72
2023/03/23 08:45:20;;;;;;;38.93;6.20;;;10.90;99.90;;;;;;5124196;27;20051;-72
2023/03/23 08:47:51;;;;;;;39.65;7.43;;;11.00;99.90;;;;;;5119954;27;20031;-70
2023/03/23 08:50:19;;;;;;;33.53;5.65;;;11.30;99.90;;;;;;5121976;27;20496;-73
2023/03/23 08:52:45;;;;;;;41.70;6.65;;;11.20;99.90;;;;;;5120687;27;20128;-72
2023/03/23 08:55:12;;;;;;;34.28;5.65;;;11.40;99.90;;;;;;5119378;27;20522;-72
2023/03/23 08:57:38;;;;;;;38.58;6.70;;;11.60;99.90;;;;;;5122485;27;20039;-71
2023/03/23 09:00:19;;;;;;;29.17;5.78;;;11.70;99.90;;;;;;5151667;27;20046;-72
2023/03/23 09:02:50;;;;;;;33.10;6.00;;;11.80;99.90;;;;;;5127553;27;20651;-73
2023/03/23 09:05:19;;;;;;;38.00;5.97;;;11.90;99.90;;;;;;5110014;27;20047;-73
2023/03/23 09:07:47;;;;;;;34.15;7.30;;;11.90;99.90;;;;;;5119228;27;20507;-73
2023/03/23 09:10:14;;;;;;;32.38;5.60;;;11.90;99.90;;;;;;5132202;27;20043;-71
2023/03/23 09:12:41;;;;;;;37.13;6.55;;;11.90;99.90;;;;;;5132364;27;20081;-72
2023/03/23 09:15:08;;;;;;;34.10;6.05;;;12.00;99.90;;;;;;5133813;27;20071;-74
2023/03/23 09:17:53;;;;;;;28.80;5.35;;;12.10;99.90;;;;;;5096759;27;20047;-73
2023/03/23 09:20:22;;;;;;;34.35;7.05;;;12.10;99.90;;;;;;5117593;27;20035;-72
2023/03/23 09:22:51;;;;;;;36.03;7.25;;;12.10;99.90;;;;;;5121985;27;20039;-72
2023/03/23 09:25:21;;;;;;;33.25;5.82;;;12.20;99.90;;;;;;5131520;27;20031;-74
2023/03/23 09:27:52;;;;;;;28.58;5.28;;;12.00;99.90;;;;;;5113644;27;20047;-71
2023/03/23 09:30:19;;;;;;;32.58;6.25;;;11.90;99.90;;;;;;5121849;27;20527;-71
2023/03/23 09:32:45;;;;;;;30.92;5.35;;;11.80;99.90;;;;;;5119360;27;20449;-72
2023/03/23 09:35:13;;;;;;;31.88;5.85;;;11.90;99.90;;;;;;5122440;27;20036;-72
2023/03/23 09:37:39;;;;;;;;;;;11.90;99.90;;;;;;5117263;27;20051;-71
2023/03/23 09:40:10;;;;;;;33.60;5.70;;;12.20;99.90;;;;;;5123500;27;19928;-72
2023/03/23 09:42:54;;;;;;;36.28;7.28;;;12.50;99.90;;;;;;5115543;27;20046;-72
2023/03/23 09:45:36;;;;;;;37.15;6.40;;;12.80;99.90;;;;;;5115707;27;20047;-71
2023/03/23 09:48:26;;;;;;;33.58;5.10;;;13.10;99.90;;;;;;5123456;27;20047;-71
2023/03/23 09:51:17;;;;;;;32.35;6.03;;;13.30;99.90;;;;;;5128199;27;20116;-72
2023/03/23 09:53:49;;;;;;;27.05;5.78;;;13.30;99.90;;;;;;5117529;27;20495;-73
2023/03/23 09:56:16;;;;;;;29.65;5.25;;;13.30;99.90;;;;;;5108262;27;20130;-73
2023/03/23 09:58:55;;;;;;;27.75;5.55;;;13.30;99.90;;;;;;5125061;27;20043;-72
2023/03/23 10:01:47;;;;;;;28.50;5.80;;;13.20;99.90;;;;;;5123573;27;20124;-72
2023/03/23 10:04:39;;;;;;;28.92;5.15;;;12.90;99.90;;;;;;5125432;27;20047;-72
2023/03/23 10:07:17;;;;;;;24.10;5.18;;;12.70;99.90;;;;;;5130510;27;20039;-73
2023/03/23 10:09:45;;;;;;;;;;;12.50;99.90;;;;;;5113649;27;20247;-72
2023/03/23 10:12:32;;;;;;;24.20;5.35;;;12.60;99.90;;;;;;5115082;27;20407;-72
2023/03/23 10:15:20;;;;;;;29.98;5.43;;;12.90;99.90;;;;;;5123211;27;20031;-74
2023/03/23 10:18:10;;;;;;;24.77;4.47;;;13.00;99.90;;;;;;5123009;27;20071;-73
2023/03/23 10:20:45;;;;;;;25.70;5.53;;;13.00;99.90;;;;;;5122730;27;20387;-74
2023/03/23 10:23:33;;;;;;;29.92;5.18;;;12.80;99.90;;;;;;5112395;27;20205;-73
2023/03/23 10:26:14;;;;;;;25.80;5.78;;;12.80;99.90;;;;;;5112957;27;20093;-73
2023/03/23 10:28:45;;;;;;;26.52;5.00;;;13.00;99.90;;;;;;5114958;27;20047;-73
2023/03/23 10:31:21;;;;;;;22.13;4.57;;;13.10;99.90;;;;;;5131797;27;20065;-72
2023/03/23 10:33:52;;;;;;;34.42;5.13;;;13.00;99.90;;;;;;5125437;27;20039;-74
2023/03/23 10:37:06;;;;;;;14.07;4.13;;;12.90;99.90;;;;;;5118301;27;20031;-73
2023/03/23 10:39:46;;;;;;;17.88;4.38;;;12.80;99.90;;;;;;5062713;28;20045;-73
2023/03/23 10:42:12;;;;;;;22.58;4.95;;;12.60;99.90;;;;;;5053826;28;20055;-72
2023/03/23 10:44:38;;;;;;;31.10;5.53;;;12.40;99.90;;;;;;5090265;27;20044;-73
2023/03/23 10:47:08;;;;;;;40.72;6.80;;;12.20;99.90;;;;;;5130397;27;20377;-73
2023/03/23 10:49:48;;;;;;;32.03;5.90;;;12.20;99.90;;;;;;5138039;27;20074;-73
2023/03/23 10:52:37;;;;;;;30.13;5.75;;;12.40;99.90;;;;;;5123624;27;20429;-71
2023/03/23 10:55:11;;;;;;;19.93;4.63;;;12.50;99.90;;;;;;5102624;27;20044;-74
2023/03/23 10:57:39;;;;;;;26.25;5.53;;;12.60;99.90;;;;;;5132528;27;20043;-73
2023/03/23 11:00:18;;;;;;;31.85;5.75;;;12.60;99.90;;;;;;5129089;27;20404;-73
2023/03/23 11:02:47;;;;;;;;;;;12.90;99.90;;;;;;5143631;27;20046;-74
2023/03/23 11:05:15;;;;;;;22.02;5.53;;;13.30;99.90;;;;;;5117517;27;19952;-74
2023/03/23 11:07:47;;;;;;;21.73;4.82;;;13.50;99.90;;;;;;5118253;27;20053;-74
2023/03/23 11:10:27;;;;;;;29.90;6.25;;;13.70;99.90;;;;;;5125350;27;20046;-74
2023/03/23 11:12:57;;;;;;;27.08;6.30;;;14.10;99.90;;;;;;5113550;27;20528;-74
2023/03/23 11:15:30;;;;;;;23.75;5.55;;;14.80;99.90;;;;;;5136009;27;20054;-73
2023/03/23 11:18:09;;;;;;;24.77;6.22;;;15.30;99.90;;;;;;5136405;27;20466;-74
2023/03/23 11:20:39;;;;;;;26.60;4.80;;;15.90;99.90;;;;;;5136804;27;20044;-73
2023/03/23 11:23:29;;;;;;;24.80;4.70;;;16.40;99.90;;;;;;5135866;27;20086;-74
2023/03/23 11:26:09;;;;;;;20.17;5.10;;;16.90;99.90;;;;;;5125348;27;20538;-74
2023/03/23 11:28:41;;;;;;;17.83;4.55;;;16.80;99.90;;;;;;5118919;27;20324;-73
2023/03/23 11:31:07;;;;;;;18.40;4.57;;;17.10;99.90;;;;;;5133242;27;20127;-74
2023/03/23 11:33:51;;;;;;;18.13;4.40;;;16.90;99.90;;;;;;5120102;27;20542;-74
2023/03/23 11:36:17;;;;;;;22.02;4.57;;;16.50;99.90;;;;;;5097920;28;20036;-73
2023/03/23 11:38:44;;;;;;;18.80;4.22;;;16.10;99.90;;;;;;5125286;27;20046;-73
2023/03/23 11:41:18;;;;;;;24.45;4.43;;;15.60;99.90;;;;;;5122013;27;20080;-73
2023/03/23 11:43:46;;;;;;;22.63;4.15;;;15.50;99.90;;;;;;5107989;27;20089;-73
2023/03/23 11:46:22;;;;;;;23.15;5.20;;;16.00;99.90;;;;;;5128755;27;20427;-73
2023/03/23 11:49:08;;;;;;;20.42;4.80;;;16.60;99.90;;;;;;5113605;28;20485;-74
2023/03/23 11:51:46;;;;;;;20.92;4.50;;;17.30;99.90;;;;;;5115698;27;20040;-74
2023/03/23 11:54:36;;;;;;;17.73;3.55;;;17.60;99.90;;;;;;5129318;27;20404;-74
2023/03/23 11:57:10;;;;;;;15.90;3.95;;;17.80;99.90;;;;;;5128777;27;20067;-73
2023/03/23 11:59:37;;;;;;;12.02;3.10;;;18.40;99.90;;;;;;5121944;27;20052;-74
2023/03/23 12:02:24;;;;;;;13.00;3.63;;;18.80;99.90;;;;;;5130264;27;20035;-73
2023/03/23 12:05:14;;;;;;;15.18;3.17;;;19.20;99.90;;;;;;5111155;27;20043;-73
2023/03/23 12:08:01;;;;;;;14.38;3.30;;;19.60;99.90;;;;;;5112440;27;20069;-74
2023/03/23 12:10:42;;;;;;;12.77;3.42;;;19.90;99.90;;;;;;5134325;27;20031;-73
2023/03/23 12:13:26;;;;;;;15.20;3.63;;;19.80;98.00;;;;;;5095046;28;20047;-74
2023/03/23 12:16:18;;;;;;;18.52;3.88;;;19.90;99.20;;;;;;5110743;27;20078;-74
2023/03/23 12:19:17;;;;;;;13.45;3.53;;;19.90;97.00;;;;;;5134668;27;20047;-74
2023/03/23 12:22:09;;;;;;;14.30;3.08;;;19.90;96.50;;;;;;5124689;27;20043;-74
2023/03/23 12:24:54;;;;;;;17.75;4.05;;;19.80;96.00;;;;;;5114340;28;20050;-74
2023/03/23 12:27:33;;;;;;;14.95;3.75;;;20.00;99.00;;;;;;5118492;27;20739;-74
2023/03/23 12:30:02;;;;;;;12.18;3.15;;;20.00;93.40;;;;;;5113688;27;20043;-73
2023/03/23 12:32:47;;;;;;;17.20;3.60;;;20.10;95.60;;;;;;5117864;27;20239;-73
2023/03/23 12:35:39;;;;;;;11.85;3.67;;;20.30;95.20;;;;;;5107656;27;20039;-74
2023/03/23 12:38:10;;;;;;;13.05;3.47;;;20.40;91.30;;;;;;5123472;27;20067;-74
2023/03/23 12:40:53;;;;;;;13.23;3.22;;;20.70;96.50;;;;;;5137104;27;20075;-73
2023/03/23 12:43:35;;;;;;;14.43;3.70;;;20.10;92.90;;;;;;5103256;27;20047;-73
2023/03/23 12:46:27;;;;;;;12.95;3.38;;;19.20;92.30;;;;;;5101848;27;20341;-72
2023/03/23 12:48:56;;;;;;;15.20;3.45;;;18.60;96.10;;;;;;5120567;27;20043;-73
2023/03/23 12:51:31;;;;;;;14.90;3.63;;;17.90;96.60;;;;;;5102680;27;20047;-73
2023/03/23 12:54:09;;;;;;;13.10;3.40;;;17.50;99.40;;;;;;5128167;27;20121;-73
2023/03/23 12:57:05;;;;;;;12.43;3.35;;;17.40;98.10;;;;;;5095609;27;20047;-72
2023/03/23 12:59:40;;;;;;;15.57;3.28;;;17.10;97.80;;;;;;5114273;27;20233;-72
2023/03/23 13:02:31;;;;;;;17.63;3.00;;;16.70;98.60;;;;;;5117832;27;20038;-73